sensor_id;sensor_type;location;lat;lon;timestamp;temperature;humidity
9544;DHT22;30418;51.45933468;7.33152330;2023-07-31T00:01:32;20.50;68.10
9544;DHT22;30418;51.45933468;7.33152330;2023-07-31T00:04:03;20.50;69.00
9544;DHT22;30418;51.45933468;7.33152330;2023-07-31T00:06:32;20.50;68.40
9544;DHT22;30418;51.45933468;7.33152330;2023-07-31T00:09:01;20.50;68.30
9544;DHT22;30418;51.45933468;7.33152330;2023-07-31T00:11:30;20.50;68.50
9544;DHT22;30418;51.45933468;7.33152330;2023-07-31T00:13:58;20.50;68.50
9544;DHT22;30418;51.45933468;7.33152330;2023-07-31T00:16:27;20.50;68.60
9544;DHT22;30418;51.45933468;7.33152330;2023-07-31T00:18:56;20.50;68.60
9544;DHT22;30418;51.45933468;7.33152330;2023-07-31T00:21:26;20.50;68.70
9544;DHT22;30418;51.45933468;7.33152330;2023-07-31T00:23:54;20.50;68.80
9544;DHT22;30418;51.45933468;7.33152330;2023-07-31T00:26:23;20.50;68.80
9544;DHT22;30418;51.45933468;7.33152330;2023-07-31T00:28:51;20.50;68.80
9544;DHT22;30418;51.45933468;7.33152330;2023-07-31T00:31:20;20.50;68.80
9544;DHT22;30418;51.45933468;7.33152330;2023-07-31T00:33:49;20.40;68.80
9544;DHT22;30418;51.45933468;7.33152330;2023-07-31T00:36:17;20.40;68.80
9544;DHT22;30418;51.45933468;7.33152330;2023-07-31T00:38:47;20.40;68.90
9544;DHT22;30418;51.45933468;7.33152330;2023-07-31T00:41:16;20.40;69.10
9544;DHT22;30418;51.45933468;7.33152330;2023-07-31T00:43:44;20.40;69.00
9544;DHT22;30418;51.45933468;7.33152330;2023-07-31T00:46:13;20.40;69.00
9544;DHT22;30418;51.45933468;7.33152330;2023-07-31T00:48:41;20.40;69.10
9544;DHT22;30418;51.45933468;7.33152330;2023-07-31T00:51:11;20.40;69.10
9544;DHT22;30418;51.45933468;7.33152330;2023-07-31T00:53:40;20.40;69.10
9544;DHT22;30418;51.45933468;7.33152330;2023-07-31T00:56:12;20.40;69.50
9544;DHT22;30418;51.45933468;7.33152330;2023-07-31T00:58:41;20.40;69.40
9544;DHT22;30418;51.45933468;7.33152330;2023-07-31T01:01:09;20.40;69.40
9544;DHT22;30418;51.45933468;7.33152330;2023-07-31T01:03:38;20.40;69.30
9544;DHT22;30418;51.45933468;7.33152330;2023-07-31T01:06:14;20.30;69.30
9544;DHT22;30418;51.45933468;7.33152330;2023-07-31T01:08:49;20.30;69.70
9544;DHT22;30418;51.45933468;7.33152330;2023-07-31T01:11:27;20.30;69.70
9544;DHT22;30418;51.45933468;7.33152330;2023-07-31T01:13:57;20.30;69.70
9544;DHT22;30418;51.45933468;7.33152330;2023-07-31T01:16:26;20.30;69.50
9544;DHT22;30418;51.45933468;7.33152330;2023-07-31T01:18:55;20.30;69.50
9544;DHT22;30418;51.45933468;7.33152330;2023-07-31T01:21:41;20.30;69.60
9544;DHT22;30418;51.45933468;7.33152330;2023-07-31T01:24:23;20.30;70.60
9544;DHT22;30418;51.45933468;7.33152330;2023-07-31T01:27:06;20.30;69.80
9544;DHT22;30418;51.45933468;7.33152330;2023-07-31T01:29:43;20.30;69.80
9544;DHT22;30418;51.45933468;7.33152330;2023-07-31T01:32:18;20.30;69.80
9544;DHT22;30418;51.45933468;7.33152330;2023-07-31T01:34:46;20.30;69.70
9544;DHT22;30418;51.45933468;7.33152330;2023-07-31T01:37:16;20.30;69.60
9544;DHT22;30418;51.45933468;7.33152330;2023-07-31T01:39:44;20.30;69.60
9544;DHT22;30418;51.45933468;7.33152330;2023-07-31T01:42:14;20.30;69.60
9544;DHT22;30418;51.45933468;7.33152330;2023-07-31T01:44:42;20.30;69.80
9544;DHT22;30418;51.45933468;7.33152330;2023-07-31T01:47:11;20.30;69.70
9544;DHT22;30418;51.45933468;7.33152330;2023-07-31T01:49:40;20.30;69.60
9544;DHT22;30418;51.45933468;7.33152330;2023-07-31T01:52:09;20.30;69.60
9544;DHT22;30418;51.45933468;7.33152330;2023-07-31T01:54:37;20.30;69.70
9544;DHT22;30418;51.45933468;7.33152330;2023-07-31T01:57:06;20.30;69.70
9544;DHT22;30418;51.45933468;7.33152330;2023-07-31T01:59:36;20.30;69.80
9544;DHT22;30418;51.45933468;7.33152330;2023-07-31T02:02:06;20.30;69.80
9544;DHT22;30418;51.45933468;7.33152330;2023-07-31T02:04:35;20.30;69.80
9544;DHT22;30418;51.45933468;7.33152330;2023-07-31T02:07:05;20.30;69.80
9544;DHT22;30418;51.45933468;7.33152330;2023-07-31T02:09:34;20.30;69.80
9544;DHT22;30418;51.45933468;7.33152330;2023-07-31T02:12:02;20.30;69.80
9544;DHT22;30418;51.45933468;7.33152330;2023-07-31T02:14:31;20.30;69.70
9544;DHT22;30418;51.45933468;7.33152330;2023-07-31T02:17:02;20.30;69.70
9544;DHT22;30418;51.45933468;7.33152330;2023-07-31T02:19:31;20.30;69.60
9544;DHT22;30418;51.45933468;7.33152330;2023-07-31T02:22:00;20.30;69.50
9544;DHT22;30418;51.45933468;7.33152330;2023-07-31T02:24:29;20.30;69.50
9544;DHT22;30418;51.45933468;7.33152330;2023-07-31T02:26:58;20.30;69.50
9544;DHT22;30418;51.45933468;7.33152330;2023-07-31T02:29:27;20.30;69.50
9544;DHT22;30418;51.45933468;7.33152330;2023-07-31T02:31:55;20.30;69.60
9544;DHT22;30418;51.45933468;7.33152330;2023-07-31T02:34:26;20.20;69.50
9544;DHT22;30418;51.45933468;7.33152330;2023-07-31T02:36:55;20.20;69.50
9544;DHT22;30418;51.45933468;7.33152330;2023-07-31T02:39:23;20.20;69.40
9544;DHT22;30418;51.45933468;7.33152330;2023-07-31T02:41:52;20.20;69.40
9544;DHT22;30418;51.45933468;7.33152330;2023-07-31T02:44:20;20.20;69.30
9544;DHT22;30418;51.45933468;7.33152330;2023-07-31T02:46:49;20.20;69.40
9544;DHT22;30418;51.45933468;7.33152330;2023-07-31T02:49:17;20.20;69.40
9544;DHT22;30418;51.45933468;7.33152330;2023-07-31T02:51:48;20.20;69.40
9544;DHT22;30418;51.45933468;7.33152330;2023-07-31T02:54:16;20.20;69.50
9544;DHT22;30418;51.45933468;7.33152330;2023-07-31T02:56:44;20.20;69.50
9544;DHT22;30418;51.45933468;7.33152330;2023-07-31T02:59:14;20.20;69.50
9544;DHT22;30418;51.45933468;7.33152330;2023-07-31T03:01:43;20.20;69.40
9544;DHT22;30418;51.45933468;7.33152330;2023-07-31T03:04:11;20.20;69.40
9544;DHT22;30418;51.45933468;7.33152330;2023-07-31T03:06:43;20.20;69.30
9544;DHT22;30418;51.45933468;7.33152330;2023-07-31T03:09:13;20.20;69.30
9544;DHT22;30418;51.45933468;7.33152330;2023-07-31T03:11:41;20.20;69.30
9544;DHT22;30418;51.45933468;7.33152330;2023-07-31T03:14:09;20.20;69.30
9544;DHT22;30418;51.45933468;7.33152330;2023-07-31T03:16:38;20.20;69.20
9544;DHT22;30418;51.45933468;7.33152330;2023-07-31T03:19:07;20.20;69.20
9544;DHT22;30418;51.45933468;7.33152330;2023-07-31T03:21:35;20.20;69.30
9544;DHT22;30418;51.45933468;7.33152330;2023-07-31T03:24:04;20.20;69.20
9544;DHT22;30418;51.45933468;7.33152330;2023-07-31T03:26:34;20.10;69.10
9544;DHT22;30418;51.45933468;7.33152330;2023-07-31T03:29:04;20.10;69.10
9544;DHT22;30418;51.45933468;7.33152330;2023-07-31T03:31:32;20.20;70.10
9544;DHT22;30418;51.45933468;7.33152330;2023-07-31T03:34:01;20.10;69.20
9544;DHT22;30418;51.45933468;7.33152330;2023-07-31T03:36:30;20.10;69.30
9544;DHT22;30418;51.45933468;7.33152330;2023-07-31T03:38:59;20.20;69.40
9544;DHT22;30418;51.45933468;7.33152330;2023-07-31T03:41:27;20.10;69.30
9544;DHT22;30418;51.45933468;7.33152330;2023-07-31T03:43:57;20.20;69.40
9544;DHT22;30418;51.45933468;7.33152330;2023-07-31T03:46:26;20.20;69.50
9544;DHT22;30418;51.45933468;7.33152330;2023-07-31T03:48:54;20.20;69.40
9544;DHT22;30418;51.45933468;7.33152330;2023-07-31T03:51:23;20.20;70.30
9544;DHT22;30418;51.45933468;7.33152330;2023-07-31T03:53:52;20.10;69.40
9544;DHT22;30418;51.45933468;7.33152330;2023-07-31T03:56:20;20.10;69.40
9544;DHT22;30418;51.45933468;7.33152330;2023-07-31T03:58:49;20.20;69.60
9544;DHT22;30418;51.45933468;7.33152330;2023-07-31T04:01:19;20.20;69.60
9544;DHT22;30418;51.45933468;7.33152330;2023-07-31T04:03:48;20.20;69.70
9544;DHT22;30418;51.45933468;7.33152330;2023-07-31T04:06:16;20.20;69.60
9544;DHT22;30418;51.45933468;7.33152330;2023-07-31T04:08:45;20.20;69.70
9544;DHT22;30418;51.45933468;7.33152330;2023-07-31T04:11:14;20.20;69.60
9544;DHT22;30418;51.45933468;7.33152330;2023-07-31T04:13:42;20.20;69.60
9544;DHT22;30418;51.45933468;7.33152330;2023-07-31T04:16:11;20.20;69.60
9544;DHT22;30418;51.45933468;7.33152330;2023-07-31T04:18:41;20.20;69.60
9544;DHT22;30418;51.45933468;7.33152330;2023-07-31T04:21:09;20.20;69.60
9544;DHT22;30418;51.45933468;7.33152330;2023-07-31T04:23:38;20.20;69.60
9544;DHT22;30418;51.45933468;7.33152330;2023-07-31T04:26:07;20.20;69.50
9544;DHT22;30418;51.45933468;7.33152330;2023-07-31T04:28:35;20.20;69.70
9544;DHT22;30418;51.45933468;7.33152330;2023-07-31T04:31:03;20.20;69.70
9544;DHT22;30418;51.45933468;7.33152330;2023-07-31T04:33:32;20.20;69.70
9544;DHT22;30418;51.45933468;7.33152330;2023-07-31T04:36:02;20.20;69.70
9544;DHT22;30418;51.45933468;7.33152330;2023-07-31T04:38:31;20.20;69.70
9544;DHT22;30418;51.45933468;7.33152330;2023-07-31T04:40:59;20.20;69.70
9544;DHT22;30418;51.45933468;7.33152330;2023-07-31T04:43:28;20.20;69.70
9544;DHT22;30418;51.45933468;7.33152330;2023-07-31T04:45:56;20.30;69.80
9544;DHT22;30418;51.45933468;7.33152330;2023-07-31T04:48:25;20.30;69.80
9544;DHT22;30418;51.45933468;7.33152330;2023-07-31T04:50:53;20.30;69.80
9544;DHT22;30418;51.45933468;7.33152330;2023-07-31T04:53:23;20.30;69.80
9544;DHT22;30418;51.45933468;7.33152330;2023-07-31T04:55:52;20.30;69.80
9544;DHT22;30418;51.45933468;7.33152330;2023-07-31T04:58:20;20.30;69.80
9544;DHT22;30418;51.45933468;7.33152330;2023-07-31T05:00:49;20.40;70.00
9544;DHT22;30418;51.45933468;7.33152330;2023-07-31T05:03:17;20.40;70.80
9544;DHT22;30418;51.45933468;7.33152330;2023-07-31T05:05:47;20.40;70.00
9544;DHT22;30418;51.45933468;7.33152330;2023-07-31T05:08:16;20.40;70.00
9544;DHT22;30418;51.45933468;7.33152330;2023-07-31T05:10:47;20.40;70.00
9544;DHT22;30418;51.45933468;7.33152330;2023-07-31T05:13:15;20.40;70.00
9544;DHT22;30418;51.45933468;7.33152330;2023-07-31T05:15:44;20.40;70.00
9544;DHT22;30418;51.45933468;7.33152330;2023-07-31T05:18:13;20.40;70.00
9544;DHT22;30418;51.45933468;7.33152330;2023-07-31T05:20:41;20.40;70.00
9544;DHT22;30418;51.45933468;7.33152330;2023-07-31T05:23:10;20.40;70.00
9544;DHT22;30418;51.45933468;7.33152330;2023-07-31T05:25:38;20.50;70.10
9544;DHT22;30418;51.45933468;7.33152330;2023-07-31T05:28:08;20.40;70.00
9544;DHT22;30418;51.45933468;7.33152330;2023-07-31T05:30:37;20.50;70.30
9544;DHT22;30418;51.45933468;7.33152330;2023-07-31T05:33:05;20.50;70.30
9544;DHT22;30418;51.45933468;7.33152330;2023-07-31T05:35:34;20.40;70.30
9544;DHT22;30418;51.45933468;7.33152330;2023-07-31T05:38:03;20.50;70.40
9544;DHT22;30418;51.45933468;7.33152330;2023-07-31T05:40:32;20.50;70.40
9544;DHT22;30418;51.45933468;7.33152330;2023-07-31T05:43:00;20.50;70.40
9544;DHT22;30418;51.45933468;7.33152330;2023-07-31T05:45:30;20.50;70.40
9544;DHT22;30418;51.45933468;7.33152330;2023-07-31T05:47:59;20.50;70.50
9544;DHT22;30418;51.45933468;7.33152330;2023-07-31T05:50:27;20.50;70.40
9544;DHT22;30418;51.45933468;7.33152330;2023-07-31T05:52:56;20.50;70.50
9544;DHT22;30418;51.45933468;7.33152330;2023-07-31T05:55:25;20.50;70.50
9544;DHT22;30418;51.45933468;7.33152330;2023-07-31T05:57:54;20.50;70.50
9544;DHT22;30418;51.45933468;7.33152330;2023-07-31T06:00:27;20.50;70.60
9544;DHT22;30418;51.45933468;7.33152330;2023-07-31T06:02:57;20.50;70.60
9544;DHT22;30418;51.45933468;7.33152330;2023-07-31T06:05:26;20.50;70.70
9544;DHT22;30418;51.45933468;7.33152330;2023-07-31T06:07:56;20.50;70.60
9544;DHT22;30418;51.45933468;7.33152330;2023-07-31T06:10:25;20.50;70.70
9544;DHT22;30418;51.45933468;7.33152330;2023-07-31T06:12:53;20.50;70.80
9544;DHT22;30418;51.45933468;7.33152330;2023-07-31T06:15:22;20.50;70.90
9544;DHT22;30418;51.45933468;7.33152330;2023-07-31T06:17:50;20.50;70.90
9544;DHT22;30418;51.45933468;7.33152330;2023-07-31T06:20:21;20.40;70.90
9544;DHT22;30418;51.45933468;7.33152330;2023-07-31T06:22:50;20.40;71.00
9544;DHT22;30418;51.45933468;7.33152330;2023-07-31T06:25:18;20.40;71.10
9544;DHT22;30418;51.45933468;7.33152330;2023-07-31T06:27:46;20.50;71.20
9544;DHT22;30418;51.45933468;7.33152330;2023-07-31T06:30:15;20.50;71.30
9544;DHT22;30418;51.45933468;7.33152330;2023-07-31T06:32:44;20.40;71.20
9544;DHT22;30418;51.45933468;7.33152330;2023-07-31T06:35:12;20.40;71.20
9544;DHT22;30418;51.45933468;7.33152330;2023-07-31T06:37:42;20.50;71.30
9544;DHT22;30418;51.45933468;7.33152330;2023-07-31T06:40:11;20.40;71.20
9544;DHT22;30418;51.45933468;7.33152330;2023-07-31T06:42:39;20.50;72.10
9544;DHT22;30418;51.45933468;7.33152330;2023-07-31T06:45:09;20.50;71.30
9544;DHT22;30418;51.45933468;7.33152330;2023-07-31T06:47:38;20.50;71.30
9544;DHT22;30418;51.45933468;7.33152330;2023-07-31T06:50:08;20.50;71.40
9544;DHT22;30418;51.45933468;7.33152330;2023-07-31T06:52:36;20.50;71.40
9544;DHT22;30418;51.45933468;7.33152330;2023-07-31T06:55:18;20.50;71.50
9544;DHT22;30418;51.45933468;7.33152330;2023-07-31T06:57:49;20.50;72.00
9544;DHT22;30418;51.45933468;7.33152330;2023-07-31T07:00:19;20.50;71.70
9544;DHT22;30418;51.45933468;7.33152330;2023-07-31T07:02:49;20.50;71.70
9544;DHT22;30418;51.45933468;7.33152330;2023-07-31T07:05:18;20.50;71.70
9544;DHT22;30418;51.45933468;7.33152330;2023-07-31T07:07:48;20.50;71.70
9544;DHT22;30418;51.45933468;7.33152330;2023-07-31T07:10:19;20.50;71.70
9544;DHT22;30418;51.45933468;7.33152330;2023-07-31T07:12:49;20.50;71.80
9544;DHT22;30418;51.45933468;7.33152330;2023-07-31T07:15:18;20.50;71.80
9544;DHT22;30418;51.45933468;7.33152330;2023-07-31T07:17:46;20.50;71.70
9544;DHT22;30418;51.45933468;7.33152330;2023-07-31T07:20:15;20.50;71.70
9544;DHT22;30418;51.45933468;7.33152330;2023-07-31T07:22:43;20.50;71.70
9544;DHT22;30418;51.45933468;7.33152330;2023-07-31T07:25:12;20.50;71.80
9544;DHT22;30418;51.45933468;7.33152330;2023-07-31T07:27:42;20.50;71.80
9544;DHT22;30418;51.45933468;7.33152330;2023-07-31T07:30:11;20.50;72.00
9544;DHT22;30418;51.45933468;7.33152330;2023-07-31T07:32:41;20.50;72.00
9544;DHT22;30418;51.45933468;7.33152330;2023-07-31T07:35:10;20.50;72.00
9544;DHT22;30418;51.45933468;7.33152330;2023-07-31T07:37:39;20.50;72.00
9544;DHT22;30418;51.45933468;7.33152330;2023-07-31T07:40:09;20.50;72.00
9544;DHT22;30418;51.45933468;7.33152330;2023-07-31T07:42:37;20.40;72.10
9544;DHT22;30418;51.45933468;7.33152330;2023-07-31T07:45:08;20.40;72.10
9544;DHT22;30418;51.45933468;7.33152330;2023-07-31T07:47:38;20.40;72.30
9544;DHT22;30418;51.45933468;7.33152330;2023-07-31T07:50:07;20.40;72.30
9544;DHT22;30418;51.45933468;7.33152330;2023-07-31T07:52:36;20.40;72.40
9544;DHT22;30418;51.45933468;7.33152330;2023-07-31T07:55:05;20.40;72.40
9544;DHT22;30418;51.45933468;7.33152330;2023-07-31T07:57:34;20.40;72.60
9544;DHT22;30418;51.45933468;7.33152330;2023-07-31T08:00:03;20.40;72.60
9544;DHT22;30418;51.45933468;7.33152330;2023-07-31T08:02:41;20.40;72.70
9544;DHT22;30418;51.45933468;7.33152330;2023-07-31T08:05:09;20.40;72.70
9544;DHT22;30418;51.45933468;7.33152330;2023-07-31T08:07:38;20.40;72.80
9544;DHT22;30418;51.45933468;7.33152330;2023-07-31T08:10:07;20.40;72.90
9544;DHT22;30418;51.45933468;7.33152330;2023-07-31T08:12:35;20.40;72.90
9544;DHT22;30418;51.45933468;7.33152330;2023-07-31T08:15:05;20.40;72.90
9544;DHT22;30418;51.45933468;7.33152330;2023-07-31T08:17:34;20.40;73.90
9544;DHT22;30418;51.45933468;7.33152330;2023-07-31T08:20:07;20.40;73.10
9544;DHT22;30418;51.45933468;7.33152330;2023-07-31T08:22:36;20.40;73.20
9544;DHT22;30418;51.45933468;7.33152330;2023-07-31T08:25:05;20.40;73.10
9544;DHT22;30418;51.45933468;7.33152330;2023-07-31T08:27:34;20.40;73.10
9544;DHT22;30418;51.45933468;7.33152330;2023-07-31T08:30:04;20.40;73.10
9544;DHT22;30418;51.45933468;7.33152330;2023-07-31T08:32:33;20.40;73.10
9544;DHT22;30418;51.45933468;7.33152330;2023-07-31T08:35:02;20.40;73.10
9544;DHT22;30418;51.45933468;7.33152330;2023-07-31T08:37:32;20.40;73.10
9544;DHT22;30418;51.45933468;7.33152330;2023-07-31T08:40:01;20.40;73.10
9544;DHT22;30418;51.45933468;7.33152330;2023-07-31T08:42:30;20.40;73.20
9544;DHT22;30418;51.45933468;7.33152330;2023-07-31T08:44:59;20.40;73.30
9544;DHT22;30418;51.45933468;7.33152330;2023-07-31T08:47:29;20.40;73.40
9544;DHT22;30418;51.45933468;7.33152330;2023-07-31T08:49:59;20.40;73.40
9544;DHT22;30418;51.45933468;7.33152330;2023-07-31T08:52:28;20.40;73.40
9544;DHT22;30418;51.45933468;7.33152330;2023-07-31T08:54:58;20.40;73.30
9544;DHT22;30418;51.45933468;7.33152330;2023-07-31T08:57:27;20.40;73.40
9544;DHT22;30418;51.45933468;7.33152330;2023-07-31T08:59:56;20.40;73.40
9544;DHT22;30418;51.45933468;7.33152330;2023-07-31T09:02:31;20.40;73.50
9544;DHT22;30418;51.45933468;7.33152330;2023-07-31T09:05:05;20.40;73.60
9544;DHT22;30418;51.45933468;7.33152330;2023-07-31T09:07:35;20.40;73.60
9544;DHT22;30418;51.45933468;7.33152330;2023-07-31T09:10:06;20.30;73.60
9544;DHT22;30418;51.45933468;7.33152330;2023-07-31T09:12:35;20.30;73.70
9544;DHT22;30418;51.45933468;7.33152330;2023-07-31T09:15:05;20.30;73.70
9544;DHT22;30418;51.45933468;7.33152330;2023-07-31T09:17:43;20.40;74.00
9544;DHT22;30418;51.45933468;7.33152330;2023-07-31T09:20:16;20.40;74.00
9544;DHT22;30418;51.45933468;7.33152330;2023-07-31T09:22:46;20.40;74.20
9544;DHT22;30418;51.45933468;7.33152330;2023-07-31T09:25:18;20.40;74.10
9544;DHT22;30418;51.45933468;7.33152330;2023-07-31T09:27:49;20.40;74.20
9544;DHT22;30418;51.45933468;7.33152330;2023-07-31T09:30:18;20.40;74.10
9544;DHT22;30418;51.45933468;7.33152330;2023-07-31T09:32:49;20.40;74.00
9544;DHT22;30418;51.45933468;7.33152330;2023-07-31T09:35:20;20.40;74.00
9544;DHT22;30418;51.45933468;7.33152330;2023-07-31T09:37:50;20.30;73.90
9544;DHT22;30418;51.45933468;7.33152330;2023-07-31T09:40:29;20.40;74.10
9544;DHT22;30418;51.45933468;7.33152330;2023-07-31T09:42:59;20.40;74.40
9544;DHT22;30418;51.45933468;7.33152330;2023-07-31T09:45:29;20.40;74.20
9544;DHT22;30418;51.45933468;7.33152330;2023-07-31T09:48:08;20.40;74.30
9544;DHT22;30418;51.45933468;7.33152330;2023-07-31T09:50:39;20.30;74.30
9544;DHT22;30418;51.45933468;7.33152330;2023-07-31T09:53:08;20.40;74.50
9544;DHT22;30418;51.45933468;7.33152330;2023-07-31T09:55:39;20.40;74.60
9544;DHT22;30418;51.45933468;7.33152330;2023-07-31T09:58:09;20.40;74.70
9544;DHT22;30418;51.45933468;7.33152330;2023-07-31T10:00:39;20.40;74.80
9544;DHT22;30418;51.45933468;7.33152330;2023-07-31T10:03:09;20.40;74.70
9544;DHT22;30418;51.45933468;7.33152330;2023-07-31T10:05:42;20.50;74.90
9544;DHT22;30418;51.45933468;7.33152330;2023-07-31T10:08:14;20.50;74.80
9544;DHT22;30418;51.45933468;7.33152330;2023-07-31T10:10:45;20.50;74.80
9544;DHT22;30418;51.45933468;7.33152330;2023-07-31T10:13:14;20.50;74.80
9544;DHT22;30418;51.45933468;7.33152330;2023-07-31T10:15:43;20.50;74.80
9544;DHT22;30418;51.45933468;7.33152330;2023-07-31T10:18:12;20.50;74.80
9544;DHT22;30418;51.45933468;7.33152330;2023-07-31T10:20:42;20.50;75.70
9544;DHT22;30418;51.45933468;7.33152330;2023-07-31T10:23:11;20.50;74.90
9544;DHT22;30418;51.45933468;7.33152330;2023-07-31T10:25:40;20.50;74.90
9544;DHT22;30418;51.45933468;7.33152330;2023-07-31T10:28:11;20.50;74.90
9544;DHT22;30418;51.45933468;7.33152330;2023-07-31T10:30:41;20.50;74.90
9544;DHT22;30418;51.45933468;7.33152330;2023-07-31T10:33:10;20.50;74.80
9544;DHT22;30418;51.45933468;7.33152330;2023-07-31T10:35:39;20.50;74.90
9544;DHT22;30418;51.45933468;7.33152330;2023-07-31T10:38:11;20.50;74.90
9544;DHT22;30418;51.45933468;7.33152330;2023-07-31T10:40:40;20.50;75.20
9544;DHT22;30418;51.45933468;7.33152330;2023-07-31T10:43:23;20.50;75.20
9544;DHT22;30418;51.45933468;7.33152330;2023-07-31T10:45:53;20.50;75.60
9544;DHT22;30418;51.45933468;7.33152330;2023-07-31T10:48:22;20.50;75.10
9544;DHT22;30418;51.45933468;7.33152330;2023-07-31T10:50:54;20.50;75.10
9544;DHT22;30418;51.45933468;7.33152330;2023-07-31T10:53:24;20.50;75.20
9544;DHT22;30418;51.45933468;7.33152330;2023-07-31T10:55:58;20.60;75.20
9544;DHT22;30418;51.45933468;7.33152330;2023-07-31T10:58:28;20.60;75.40
9544;DHT22;30418;51.45933468;7.33152330;2023-07-31T11:00:59;20.50;75.20
9544;DHT22;30418;51.45933468;7.33152330;2023-07-31T11:03:44;20.50;75.20
9544;DHT22;30418;51.45933468;7.33152330;2023-07-31T11:06:14;20.50;75.50
9544;DHT22;30418;51.45933468;7.33152330;2023-07-31T11:08:46;20.50;75.10
9544;DHT22;30418;51.45933468;7.33152330;2023-07-31T11:11:17;20.50;76.00
9544;DHT22;30418;51.45933468;7.33152330;2023-07-31T11:13:48;20.50;75.20
9544;DHT22;30418;51.45933468;7.33152330;2023-07-31T11:16:20;20.50;75.40
9544;DHT22;30418;51.45933468;7.33152330;2023-07-31T11:18:50;20.50;75.40
9544;DHT22;30418;51.45933468;7.33152330;2023-07-31T11:21:21;20.50;76.20
9544;DHT22;30418;51.45933468;7.33152330;2023-07-31T11:23:52;20.50;75.40
9544;DHT22;30418;51.45933468;7.33152330;2023-07-31T11:26:27;20.50;75.40
9544;DHT22;30418;51.45933468;7.33152330;2023-07-31T11:28:59;20.50;75.40
9544;DHT22;30418;51.45933468;7.33152330;2023-07-31T11:31:27;20.50;75.50
9544;DHT22;30418;51.45933468;7.33152330;2023-07-31T11:34:04;20.50;75.50
9544;DHT22;30418;51.45933468;7.33152330;2023-07-31T11:36:33;20.50;75.90
9544;DHT22;30418;51.45933468;7.33152330;2023-07-31T11:39:05;20.50;75.70
9544;DHT22;30418;51.45933468;7.33152330;2023-07-31T11:41:34;20.60;76.00
9544;DHT22;30418;51.45933468;7.33152330;2023-07-31T11:44:04;20.60;75.90
9544;DHT22;30418;51.45933468;7.33152330;2023-07-31T11:46:52;20.60;76.10
9544;DHT22;30418;51.45933468;7.33152330;2023-07-31T11:49:21;20.60;76.00
9544;DHT22;30418;51.45933468;7.33152330;2023-07-31T11:51:50;20.60;76.00
9544;DHT22;30418;51.45933468;7.33152330;2023-07-31T11:54:19;20.60;76.30
9544;DHT22;30418;51.45933468;7.33152330;2023-07-31T11:56:47;20.70;76.20
9544;DHT22;30418;51.45933468;7.33152330;2023-07-31T11:59:18;20.70;76.10
9544;DHT22;30418;51.45933468;7.33152330;2023-07-31T12:01:47;20.70;76.20
9544;DHT22;30418;51.45933468;7.33152330;2023-07-31T12:04:17;20.70;76.20
9544;DHT22;30418;51.45933468;7.33152330;2023-07-31T12:06:46;20.70;76.20
9544;DHT22;30418;51.45933468;7.33152330;2023-07-31T12:09:15;20.70;76.10
9544;DHT22;30418;51.45933468;7.33152330;2023-07-31T12:11:44;20.70;76.00
9544;DHT22;30418;51.45933468;7.33152330;2023-07-31T12:14:25;20.80;76.20
9544;DHT22;30418;51.45933468;7.33152330;2023-07-31T12:16:56;20.80;76.50
9544;DHT22;30418;51.45933468;7.33152330;2023-07-31T12:19:26;20.80;76.30
9544;DHT22;30418;51.45933468;7.33152330;2023-07-31T12:21:57;20.80;76.50
9544;DHT22;30418;51.45933468;7.33152330;2023-07-31T12:24:26;20.90;76.60
9544;DHT22;30418;51.45933468;7.33152330;2023-07-31T12:26:55;20.90;76.60
9544;DHT22;30418;51.45933468;7.33152330;2023-07-31T12:29:33;20.90;76.50
9544;DHT22;30418;51.45933468;7.33152330;2023-07-31T12:32:19;20.90;76.80
9544;DHT22;30418;51.45933468;7.33152330;2023-07-31T12:34:49;20.90;76.70
9544;DHT22;30418;51.45933468;7.33152330;2023-07-31T12:37:17;21.00;76.40
9544;DHT22;30418;51.45933468;7.33152330;2023-07-31T12:39:46;21.00;76.40
9544;DHT22;30418;51.45933468;7.33152330;2023-07-31T12:42:17;21.00;76.20
9544;DHT22;30418;51.45933468;7.33152330;2023-07-31T12:44:47;21.00;76.20
9544;DHT22;30418;51.45933468;7.33152330;2023-07-31T12:47:15;21.00;76.20
9544;DHT22;30418;51.45933468;7.33152330;2023-07-31T12:49:44;21.00;76.00
9544;DHT22;30418;51.45933468;7.33152330;2023-07-31T12:52:12;21.00;75.90
9544;DHT22;30418;51.45933468;7.33152330;2023-07-31T12:54:41;21.00;76.00
9544;DHT22;30418;51.45933468;7.33152330;2023-07-31T12:57:09;20.90;75.90
9544;DHT22;30418;51.45933468;7.33152330;2023-07-31T12:59:38;20.90;76.00
9544;DHT22;30418;51.45933468;7.33152330;2023-07-31T13:02:07;20.90;76.00
9544;DHT22;30418;51.45933468;7.33152330;2023-07-31T13:04:36;20.90;76.10
9544;DHT22;30418;51.45933468;7.33152330;2023-07-31T13:07:05;20.90;76.00
9544;DHT22;30418;51.45933468;7.33152330;2023-07-31T13:09:34;20.90;77.00
9544;DHT22;30418;51.45933468;7.33152330;2023-07-31T13:12:02;20.90;76.30
9544;DHT22;30418;51.45933468;7.33152330;2023-07-31T13:14:31;20.90;76.40
9544;DHT22;30418;51.45933468;7.33152330;2023-07-31T13:17:00;20.90;76.40
9544;DHT22;30418;51.45933468;7.33152330;2023-07-31T13:19:33;21.00;76.60
9544;DHT22;30418;51.45933468;7.33152330;2023-07-31T13:22:01;21.00;76.60
9544;DHT22;30418;51.45933468;7.33152330;2023-07-31T13:24:31;21.00;76.50
9544;DHT22;30418;51.45933468;7.33152330;2023-07-31T13:26:59;21.00;76.50
9544;DHT22;30418;51.45933468;7.33152330;2023-07-31T13:29:29;21.00;76.60
9544;DHT22;30418;51.45933468;7.33152330;2023-07-31T13:31:59;21.00;76.50
9544;DHT22;30418;51.45933468;7.33152330;2023-07-31T13:34:28;21.00;76.50
9544;DHT22;30418;51.45933468;7.33152330;2023-07-31T13:36:58;21.00;76.40
9544;DHT22;30418;51.45933468;7.33152330;2023-07-31T13:39:27;21.00;76.40
9544;DHT22;30418;51.45933468;7.33152330;2023-07-31T13:41:55;21.00;76.20
9544;DHT22;30418;51.45933468;7.33152330;2023-07-31T13:44:23;21.00;76.20
9544;DHT22;30418;51.45933468;7.33152330;2023-07-31T13:46:52;21.00;76.20
9544;DHT22;30418;51.45933468;7.33152330;2023-07-31T13:49:20;21.00;76.30